Pagrindinis puslapis
METAR-TAF:

METAR-TAF

Oro uostai :

Tyndall Air Force Base

Panama City, Florida, Jungtinės Amerikos Valstijos

platuma: 30-04N, ilguma: 085-35W, Aukštis: 5 m

Dabartinis oras

Ataskaita buvo paskelbta 48 minutes, ne 16:56 UTC
Vėjas 5 kt iš Šiaurės/Šiaurės Rytų
Temperatūra 20°C
Drėgmė 49%
Slėgis 1016 hPa
Matomumas: 16.1 km
Mažai debesys ne aukštis 19000 ft

METAR: KPAM 171656Z AUTO 02005KT 10SM FEW190 20/09 A2999 RMK AO2 SLP159 T01990089 $

Laikas: 12:44 (17:44 UTC)

Prognozė

Ataskaita buvo paskelbta 7 valandos ir 44 minutes, ne 10:00 UTC
Prognozė galioja nuo 17 metu 10 UTC su 18 metu 16 UTC
Vėjas 6 kt iš Rytų/Šiaurės Rytų su gūsio iki 18 kt
Matomumas: 1803 m
Giedras dangus

TAF: KPAM 171000Z 1710/1816 02012G18KT 9999 SKC QNH2994INS WND 06006KT AFT 1803 TX28/1720Z TN16/1711Z

Orai ataskaitas ir orų prognozės (METAR, TAF).

turimą stotys yra geltonos ir raudonos taškus žemėlapyje.

Perkelti pele per norėdami pamatyti stoties vardą.

Tada spustelėkite, norėdami matyti oro stebėjimo ir prognozės.

Norėdami pakeisti žemėlapį: spustelėkite ant žalios mygtukų su juodo kryžiaus žemyn,; žalią mygtuką su brūkšneliu, jei norite nutolinti; arba žalių rodyklių gretimoms žemėlapius.


METAR-TAF: